CA-0088 weather

Navan Bearbrook Airport
Ottawa, Ontario, Canada

Public forecast

Using degrees Celsius for public forecast. Weather courtesy of forecast.io.

Closest aviation weather report (METAR) to Navan Bearbrook Airport

Closest report is Ottawa / Gatineau Airport, 13.7 nm (25.3 km) NW. Retrieved 2020/02/20 13:00 UTC (51 minutes ago):

CYND 201300Z 33005KT 15SM FEW050 M18/M22 A3050 RMK SC1 SC TR SLP335

Closest aviation forecast (TAF) to Navan Bearbrook Airport

Closest forecast is Ottawa / Gatineau Airport, 13.7 nm (25.3 km) NW. Retrieved 2020/02/20 14:00 UTC (0 seconds ago):

TAF CYND 201338Z 2014/2102 32005KT P6SM FEW050 BECMG 2015/2017 28012KT BECMG 2022/2024 VRB03KT RMK NXT FCST BY 201800Z